VRMM/MLE METAR and TAF weather

Enter ICAO airport designator
Station Type Date Time Source
VRMM METAR 2020/01/24 21:00 UTC NOAA

VRMM 242100Z 07014KT 9000 FEW018TCU SCT110 BKN270 28/26 Q1011 TEMPO 6000 -TSRA


Station Type Date Time Source
VRMM Decoded METAR 2020/01/24 21:00 UTC NOAA

Male, Maldives (VRMM) 04-12N 073-32E 2M
Jan 24, 2020 - 04:00 PM EST / 2020.01.24 2100 UTC
Wind: from the ENE (070 degrees) at 16 MPH (14 KT):0
Visibility: 5 mile(s):0
Sky conditions: mostly cloudy
Weather: Towering cumulus clouds observed
Temperature: 82 F (28 C)
Dew Point: 78 F (26 C)
Relative Humidity: 88%
Pressure (altimeter): 29.85 in. Hg (1011 hPa)
ob: VRMM 242100Z 07014KT 9000 FEW018TCU SCT110 BKN270 28/26 Q1011 TEMPO 6000 -TSRA
cycle: 21

Station Type Date Time Source
VRMM TAF 2020/01/24 18:15 UTC NOAA

TAF VRMM 241700Z 2418/2524 07015KT 9999 FEW018TCU
TEMPO 2418/2424 6000 -TSRA SCT017CB

Example: see airport list